Los Angeles Regional Airport Weather

KWHP 240255Z 13007KT 10SM SKC 26/13 A2990

KAPV 191256Z AUTO 05004KT 10SM FEW075 SCT090 BKN110 18/18 A2996 RMK AO2 SLP144 T01830178 $

KAVX 241051Z AUTO 04003KT 10SM CLR 21/M01 A2989 RMK AO2 SLP094 T02061011 TSNO $

KBFL 241154Z 07005KT 10SM CLR 24/03 A2979 RMK AO2 SLP081 T02440033 10300 20239 58008

KBUR 241153Z 18004KT 10SM CLR 15/12 A2985 RMK AO2 SLP096 T01500117 10178 20150 56009

KCMA 241155Z AUTO VRB04KT 2 1/2SM BR OVC002 13/12 A2986 RMK AO2 SLP118 T01330122 10139 20128 58008

KCNO 241153Z AUTO 26003KT 5SM BR CLR 14/12 A2988 RMK AO2 SLP112 T01440122 10183 20133 55006

KEMT 240250Z 20007KT 10SM CLR 20/12 A2990

KFUL 241153Z AUTO 09005KT 8SM OVC008 16/14 A2986 RMK AO2 SLP109 T01610139 10178 20150 58004

KHHR 241153Z AUTO VRB03KT 9SM OVC007 15/13 A2986 RMK AO2 SLP111 T01500133 10156 20144 58012

KL35 241135Z AUTO 00000KT 10SM CLR 05/M07 A3016 RMK AO2

KLAX 241153Z 00000KT 5SM BR OVC007 15/14 A2986 RMK AO2 SLP109 T01500139 10150 20144 58012 $

KLGB 241153Z AUTO 11003KT 8SM OVC008 15/13 A2987 RMK AO2 SLP114 T01500128 10167 20150 58002 TSNO

KONT 241153Z 24004KT 10SM CLR 16/12 A2987 RMK AO2 SLP099 T01560122 10211 20150 55007

KOXR 241151Z AUTO 00000KT 1 3/4SM BR OVC002 13/12 A2986 RMK AO2 SLP111 T01330122 10139 20128 55009

KPMD 241153Z AUTO 21008KT 10SM CLR 20/M02 A2989 RMK AO2 SLP089 T02001017 10250 20194 56010

KPOC 240347Z 27006KT 10SM CLR 21/10 A2994 RMK LAST

KRAL 241153Z AUTO 29003KT 10SM CLR 16/13 A2987 RMK AO2 SLP099 T01560128 10206 20150 55008

KSMO 241151Z AUTO 00000KT 10SM OVC007 A2986 RMK AO2 SLPNO $

KSNA 241153Z 00000KT 9SM OVC006 16/14 A2987 RMK AO2 SLP112 T01560139 10156 20150 58008

KTOA 240247Z 30011KT 10SM FEW010 FEW140 15/13 A2989

KTRM 241152Z AUTO 31008KT 10SM CLR 29/07 A2965 RMK AO2 SLP042 T02890072 10339 20289 56007

KVNY 241151Z 13003KT 10SM CLR 16/13 A2986 RMK AO2 SLP101 T01560128 10189 20156 56008

KWJF 241156Z AUTO 26003KT 10SM CLR 18/01 A2987 RMK AO2 SLP095 T01780006 10244 20161 56009



How to read METARs